createdAt,value
2024-04-19T04:36:54.988Z,0.20
2024-04-19T04:39:22.870Z,0.30
2024-04-19T04:41:50.388Z,0.10
2024-04-19T04:44:18.159Z,0.10
2024-04-19T04:46:45.779Z,0.10
2024-04-19T04:49:13.432Z,0.20
2024-04-19T04:51:41.072Z,0.00
2024-04-19T04:54:09.024Z,0.10
2024-04-19T04:56:36.587Z,0.17
2024-04-19T04:59:04.231Z,0.10
2024-04-19T05:01:31.874Z,0.10
2024-04-19T05:03:59.541Z,0.00
2024-04-19T05:06:27.158Z,0.00
2024-04-19T05:08:54.927Z,0.10
2024-04-19T05:11:22.517Z,0.10
2024-04-19T05:13:50.141Z,0.00
2024-04-19T05:16:19.128Z,0.10
2024-04-19T05:18:47.472Z,0.10
2024-04-19T05:21:15.110Z,0.10
2024-04-19T05:23:42.891Z,0.10
2024-04-19T05:26:10.429Z,0.10
2024-04-19T05:28:38.143Z,0.10
2024-04-19T05:31:06.029Z,0.10
2024-04-19T05:33:33.616Z,0.00
2024-04-19T05:36:01.202Z,0.10
2024-04-19T05:38:29.108Z,0.00
2024-04-19T05:40:56.630Z,0.10
2024-04-19T05:43:24.589Z,0.10
2024-04-19T05:45:52.210Z,0.10
2024-04-19T05:48:22.222Z,0.10
2024-04-19T05:50:50.321Z,0.10
2024-04-19T05:53:17.972Z,0.10
2024-04-19T05:55:45.945Z,0.10
2024-04-19T05:58:17.158Z,0.00
2024-04-19T06:00:44.896Z,0.10
2024-04-19T06:03:12.572Z,0.10
2024-04-19T06:05:40.274Z,0.10
2024-04-19T06:08:09.491Z,0.10
2024-04-19T06:10:37.258Z,0.10
2024-04-19T06:13:05.034Z,0.28
2024-04-19T06:15:32.776Z,0.17
2024-04-19T06:18:01.446Z,0.00
2024-04-19T06:20:29.138Z,0.22
2024-04-19T06:22:56.765Z,0.10
2024-04-19T06:25:24.549Z,0.10
2024-04-19T06:27:52.283Z,0.10
2024-04-19T07:31:05.674Z,0.30
2024-04-19T07:33:33.591Z,0.20
2024-04-19T07:36:01.173Z,0.10
2024-04-19T07:38:29.012Z,0.20
2024-04-19T07:41:08.477Z,0.10
2024-04-19T07:43:52.879Z,0.10
2024-04-19T07:46:24.091Z,0.10
2024-04-19T07:48:51.745Z,0.25
2024-04-19T07:51:19.506Z,0.10
2024-04-19T07:53:47.072Z,0.10
2024-04-19T07:56:14.669Z,0.10
2024-04-19T07:58:42.209Z,0.00
2024-04-19T08:01:10.091Z,0.10
2024-04-19T08:03:37.948Z,0.10
2024-04-19T08:06:06.035Z,0.10
2024-04-19T08:08:33.591Z,0.05
2024-04-19T08:11:03.161Z,0.10
2024-04-19T08:13:30.735Z,0.10
2024-04-19T08:15:58.577Z,0.10
2024-04-19T08:18:26.505Z,0.08
2024-04-19T08:20:54.162Z,0.20
2024-04-19T08:23:21.882Z,0.10
2024-04-19T08:25:49.547Z,0.20
2024-04-19T08:28:17.093Z,0.38
2024-04-19T08:30:44.879Z,0.10
2024-04-19T08:33:12.822Z,0.10
2024-04-19T09:41:53.562Z,0.20
2024-04-19T09:44:25.284Z,0.20
2024-04-19T09:46:58.571Z,0.20
2024-04-19T09:49:31.559Z,0.10
2024-04-19T09:54:38.555Z,0.20
2024-04-19T09:57:07.849Z,0.20
2024-04-19T09:59:37.113Z,0.10
2024-04-19T10:02:06.657Z,0.10
2024-04-19T10:04:39.243Z,0.20
2024-04-19T10:07:11.685Z,0.10
2024-04-19T10:09:40.564Z,0.10
2024-04-19T10:12:08.947Z,0.20
2024-04-19T10:14:36.650Z,0.20
2024-04-19T10:17:04.656Z,0.10
2024-04-19T10:19:45.076Z,0.30
2024-04-19T10:22:26.592Z,0.20
2024-04-19T10:25:01.605Z,0.20
2024-04-19T10:27:31.313Z,0.32
2024-04-19T10:30:01.080Z,0.20
2024-04-19T10:32:30.847Z,0.30
2024-04-19T10:34:58.673Z,0.20
2024-04-19T10:37:26.939Z,0.40
2024-04-19T10:39:54.537Z,0.28
2024-04-19T10:42:22.810Z,0.30
2024-04-19T10:44:52.336Z,0.45
2024-04-19T10:47:22.570Z,0.25
2024-04-19T10:49:50.564Z,0.30
2024-04-19T10:52:23.472Z,0.20
2024-04-19T10:54:51.500Z,0.20
2024-04-19T10:57:19.120Z,0.40
2024-04-19T10:59:46.768Z,0.30
2024-04-19T11:02:14.728Z,0.20
2024-04-19T11:04:44.413Z,0.25
2024-04-19T11:07:12.023Z,0.50
2024-04-19T11:09:40.384Z,0.25
2024-04-19T11:12:08.347Z,0.25
2024-04-19T11:14:36.683Z,0.40
2024-04-19T11:17:05.160Z,0.38
2024-04-19T11:19:34.400Z,0.40
2024-04-19T11:22:02.472Z,0.40
2024-04-19T11:24:31.932Z,0.40
2024-04-19T11:26:59.580Z,0.45
2024-04-19T11:29:27.652Z,0.50
2024-04-19T11:31:55.451Z,0.40
2024-04-19T11:34:31.006Z,0.40
2024-04-19T11:37:06.864Z,0.50
2024-04-19T11:39:36.019Z,0.52
2024-04-19T11:42:03.767Z,0.50
2024-04-19T11:44:31.749Z,0.40
2024-04-19T11:47:06.147Z,0.40
2024-04-19T11:49:34.356Z,0.60
2024-04-19T11:52:02.569Z,0.45
2024-04-19T11:54:33.276Z,0.50
2024-04-19T11:57:01.527Z,0.50
2024-04-19T11:59:29.194Z,0.50
2024-04-19T12:01:57.686Z,0.60
2024-04-19T12:04:25.453Z,0.30
2024-04-19T12:06:53.847Z,0.40
2024-04-19T12:09:21.606Z,0.50
2024-04-19T12:15:12.944Z,0.50
2024-04-19T12:17:17.904Z,0.65
2024-04-19T12:19:50.682Z,0.40
2024-04-19T12:22:19.605Z,0.40
2024-04-19T12:24:48.735Z,0.40
2024-04-19T12:27:16.937Z,0.93
2024-04-19T12:29:47.309Z,0.28
2024-04-19T12:32:14.931Z,0.43
2024-04-19T12:34:44.946Z,0.30
2024-04-19T12:37:12.596Z,0.63
2024-04-19T12:39:40.244Z,0.50
2024-04-19T12:42:08.655Z,0.40
2024-04-19T12:44:36.837Z,0.50
2024-04-19T12:47:04.596Z,0.35
2024-04-19T12:49:32.423Z,0.50
2024-04-19T12:52:00.177Z,0.47
2024-04-19T12:54:27.909Z,0.50
2024-04-19T12:56:55.541Z,0.38
2024-04-19T12:59:23.279Z,0.40
2024-04-19T13:01:50.900Z,0.63
2024-04-19T13:04:18.710Z,0.40
2024-04-19T13:06:46.489Z,0.40
2024-04-19T13:09:14.182Z,0.50
2024-04-19T13:11:41.749Z,0.40
2024-04-19T13:14:09.571Z,0.40
2024-04-19T13:16:37.209Z,0.40
2024-04-19T13:19:04.947Z,0.57
2024-04-19T13:21:32.750Z,0.60
2024-04-19T13:24:00.475Z,0.30
2024-04-19T13:26:28.507Z,0.50
2024-04-19T13:28:57.783Z,0.52
2024-04-19T13:31:25.598Z,0.28
2024-04-19T13:33:53.501Z,0.35
2024-04-19T13:36:21.596Z,0.70
2024-04-19T13:38:49.615Z,0.75
2024-04-19T13:41:17.159Z,0.60
2024-04-19T13:43:44.880Z,0.40
2024-04-19T13:46:12.630Z,0.70
2024-04-19T13:48:40.857Z,0.77
2024-04-19T13:51:09.299Z,0.93
2024-04-19T13:53:43.058Z,0.95
2024-04-19T13:56:16.500Z,0.93
2024-04-19T14:01:17.571Z,0.55
2024-04-19T14:03:46.161Z,0.80
2024-04-19T14:06:13.937Z,0.80
2024-04-19T14:08:41.595Z,0.75
2024-04-19T14:11:09.258Z,0.63
2024-04-19T14:13:37.515Z,0.80
2024-04-19T14:16:05.399Z,1.30
2024-04-19T14:18:33.058Z,0.90
2024-04-19T14:21:00.733Z,0.80
2024-04-19T14:23:28.415Z,0.95
2024-04-19T14:25:57.036Z,1.25
2024-04-19T14:28:24.767Z,1.02
2024-04-19T14:30:52.629Z,1.30
2024-04-19T14:33:20.442Z,1.20
2024-04-19T14:35:48.086Z,1.23
2024-04-19T14:38:15.880Z,0.80
2024-04-19T14:40:43.555Z,1.00
2024-04-19T14:43:11.388Z,1.00
2024-04-19T14:45:39.097Z,1.10
2024-04-19T14:48:07.235Z,0.95
2024-04-19T14:50:34.972Z,1.00
2024-04-19T14:53:09.750Z,1.25
2024-04-19T14:55:38.832Z,0.80
2024-04-19T14:58:06.705Z,0.93
2024-04-19T15:00:34.647Z,0.93
2024-04-19T15:03:02.825Z,1.00
2024-04-19T15:05:31.455Z,0.80
2024-04-19T15:08:00.784Z,0.93
2024-04-19T15:10:28.602Z,0.82
2024-04-19T15:12:56.166Z,1.00
2024-04-19T15:15:23.971Z,0.60
2024-04-19T15:17:54.738Z,0.93
2024-04-19T15:20:22.408Z,1.00
2024-04-19T15:22:50.620Z,1.15
2024-04-19T15:25:18.537Z,1.05
2024-04-19T15:27:46.150Z,1.50
2024-04-19T15:30:14.020Z,1.00
2024-04-19T15:32:42.430Z,1.05
2024-04-19T15:35:11.771Z,1.20
2024-04-19T15:37:39.367Z,1.05
2024-04-19T15:40:08.090Z,1.17
2024-04-19T15:42:35.825Z,0.98
2024-04-19T15:45:04.165Z,1.20
2024-04-19T15:47:32.470Z,0.95
2024-04-19T15:50:00.609Z,0.85
2024-04-19T15:52:28.200Z,0.95
2024-04-19T15:54:56.234Z,0.93
2024-04-19T15:57:23.944Z,0.88
2024-04-19T15:59:52.418Z,0.95
2024-04-19T16:02:20.287Z,0.70
2024-04-19T16:04:47.994Z,1.10
2024-04-19T16:07:15.560Z,1.02
2024-04-19T16:09:43.366Z,1.85
2024-04-19T16:12:11.067Z,0.88
2024-04-19T16:14:38.690Z,0.80
2024-04-19T16:17:06.495Z,0.50
2024-04-19T16:19:34.125Z,0.95
2024-04-19T16:22:01.764Z,0.70
2024-04-19T16:24:29.612Z,1.00
2024-04-19T16:26:58.884Z,0.93
2024-04-19T16:29:27.141Z,0.80
2024-04-19T16:31:54.872Z,0.70
2024-04-19T16:34:22.671Z,0.80
2024-04-19T16:36:52.534Z,0.82
2024-04-19T16:39:20.376Z,1.10
2024-04-19T16:41:47.894Z,0.75
2024-04-19T16:44:15.609Z,1.00
2024-04-19T16:46:43.415Z,0.85
2024-04-19T16:49:11.047Z,0.93
2024-04-19T16:51:39.111Z,1.05
2024-04-19T16:54:07.122Z,0.80
2024-04-19T16:56:34.863Z,0.88
2024-04-19T16:59:02.532Z,0.90
2024-04-19T17:01:30.320Z,1.05
2024-04-19T17:03:58.036Z,0.77
2024-04-19T17:06:25.624Z,0.70
2024-04-19T17:08:53.534Z,0.80
2024-04-19T17:11:21.207Z,0.73
2024-04-19T17:13:48.877Z,0.65
2024-04-19T17:16:16.513Z,0.50
2024-04-19T17:18:44.170Z,1.00
2024-04-19T17:21:11.771Z,1.00
2024-04-19T17:23:39.546Z,0.68
2024-04-19T17:26:07.139Z,1.00
2024-04-19T17:28:34.950Z,1.00
2024-04-19T17:31:07.356Z,0.88
2024-04-19T17:33:35.822Z,1.10
2024-04-19T17:36:05.947Z,0.80
2024-04-19T17:38:33.622Z,0.90
2024-04-19T17:41:04.394Z,0.70
2024-04-19T17:43:32.434Z,0.80
2024-04-19T17:46:00.070Z,0.70
2024-04-19T17:48:28.007Z,0.75
2024-04-19T17:50:55.804Z,0.98
2024-04-19T17:53:23.771Z,0.80
2024-04-19T17:55:52.227Z,0.80
2024-04-19T17:58:19.933Z,0.90
2024-04-19T18:00:53.743Z,0.70
2024-04-19T18:03:21.684Z,0.70
2024-04-19T18:05:49.175Z,0.88
2024-04-19T18:08:17.328Z,0.70
2024-04-19T18:10:45.183Z,0.80
2024-04-19T18:13:13.115Z,0.95
2024-04-19T18:15:40.925Z,0.95
2024-04-19T18:18:09.228Z,0.70
2024-04-19T18:20:40.860Z,0.77
2024-04-19T18:23:08.581Z,1.42
2024-04-19T18:25:36.286Z,0.90
2024-04-19T18:28:03.973Z,0.77
2024-04-19T18:30:31.593Z,0.70
2024-04-19T18:32:59.336Z,0.85
2024-04-19T18:35:28.850Z,0.80
2024-04-19T18:37:57.500Z,1.30
2024-04-19T18:40:25.332Z,1.08
2024-04-19T18:42:53.047Z,0.98
2024-04-19T18:45:24.257Z,1.00
2024-04-19T18:47:52.419Z,0.75
2024-04-19T18:50:21.041Z,0.93
2024-04-19T18:52:49.633Z,1.00
2024-04-19T18:55:19.331Z,1.00
2024-04-19T18:57:48.312Z,0.90
2024-04-19T19:00:15.863Z,1.30
2024-04-19T19:02:44.977Z,1.20
2024-04-19T19:05:17.295Z,1.20
2024-04-19T19:07:45.115Z,1.42
2024-04-19T19:10:14.698Z,1.50
2024-04-19T19:12:46.879Z,1.20
2024-04-19T19:15:16.648Z,1.10
2024-04-19T19:17:44.836Z,1.38
2024-04-19T19:20:16.104Z,1.60
2024-04-19T19:22:43.857Z,1.75
2024-04-19T19:25:13.427Z,2.03
2024-04-19T19:27:44.211Z,1.90
2024-04-19T19:30:13.250Z,2.30
2024-04-19T19:32:40.759Z,2.13
2024-04-19T19:35:08.375Z,2.17
